Погода Ален-Параибана 2 недели

Минас-Жерайс, Бразилия

21 июля-02 августа
  • 21июля
    Сегодня
    +16°
    +29°
    Ясно и безоблачно
    ВремяПогодаТемператураВлажностьДавлениеВетер, м/сВероятность осадков
    00:00Ясно и безоблачно+18°C85 %768 мм0.2 м/с5 %
    03:00Ясно и безоблачно+16°C92 %768 мм0.9 м/с5 %
    06:00Практически безоблачно+15°C95 %768 мм1.1 м/с4 %
    09:00Практически безоблачно+21°C77 %769 мм0.2 м/с10 %
    12:00Небольшая облачность+27°C57 %768 мм0.6 м/с14 %
    15:00Ясно и безоблачно+28°C49 %766 мм0.7 м/с5 %
    18:00Ясно и безоблачно+23°C65 %766 мм1.4 м/с5 %
    21:00Ясно и безоблачно+20°C78 %767 мм0.8 м/с5 %
  • 22июля
    Понедельник
    +16°
    +32°
    Ясно и безоблачно
    ВремяПогодаТемператураВлажностьДавлениеВетер, м/сВероятность осадков
    00:00Ясно и безоблачно+18°C86 %768 мм0.1 м/с5 %
    03:00Ясно и безоблачно+17°C92 %767 мм1.0 м/с5 %
    06:00Практически безоблачно+16°C93 %767 мм1.1 м/с5 %
    09:00Практически безоблачно+23°C74 %768 мм0.3 м/с5 %
    12:00Ясно и безоблачно+30°C55 %767 мм0.3 м/с5 %
    15:00Ясно и безоблачно+32°C43 %765 мм0.3 м/с5 %
    18:00Ясно и безоблачно+27°C56 %766 мм1.0 м/с5 %
    21:00Ясно и безоблачно+23°C75 %767 мм0.8 м/с5 %
  • 23июля
    Вторник
    +17°
    +31°
    Ясно и безоблачно
    ВремяПогодаТемператураВлажностьДавлениеВетер, м/сВероятность осадков
    00:00Ясно и безоблачно+19°C82 %767 мм1.2 м/с5 %
    03:00Ясно и безоблачно+17°C84 %767 мм1.8 м/с5 %
    06:00Ясно и безоблачно+17°C88 %768 мм1.9 м/с5 %
    09:00Ясно и безоблачно+24°C65 %769 мм1.4 м/с5 %
    12:00Ясно и безоблачно+30°C50 %768 мм0.5 м/с5 %
    15:00Ясно и безоблачно+30°C42 %766 мм0.7 м/с5 %
    18:00Ясно и безоблачно+26°C49 %767 мм1.3 м/с5 %
    21:00Ясно и безоблачно+22°C75 %768 мм0.8 м/с5 %
  • 24июля
    Среда
    +16°
    +30°
    Практически безоблачно
    ВремяПогодаТемператураВлажностьДавлениеВетер, м/сВероятность осадков
    00:00Ясно и безоблачно+19°C85 %769 мм0.6 м/с5 %
    03:00Практически безоблачно+18°C91 %769 мм0.7 м/с5 %
    06:00Небольшая облачность+17°C94 %769 мм0.7 м/с5 %
    09:00Небольшая облачность+23°C80 %770 мм0.8 м/с5 %
    12:00Пасмурно, сплошная облачность+29°C58 %769 мм1.8 м/с4 %
    15:00Практически безоблачно+30°C49 %768 мм1.4 м/с5 %
    18:00Практически безоблачно+23°C68 %768 мм1.3 м/с5 %
    21:00Ясно и безоблачно+21°C79 %768 мм0.8 м/с5 %
  • 25июля
    Четверг
    +17°
    +33°
    Ясно и безоблачно
    ВремяПогодаТемператураВлажностьДавлениеВетер, м/сВероятность осадков
    00:00Практически безоблачно+19°C81 %769 мм0.3 м/с5 %
    03:00Облачно с прояснениями+18°C91 %768 мм0.7 м/с5 %
    06:00Небольшая облачность+17°C97 %768 мм0.7 м/с4 %
    09:00Ясно и безоблачно+24°C71 %769 мм0.4 м/с4 %
    12:00Ясно и безоблачно+31°C48 %767 мм1.3 м/с5 %
    15:00Ясно и безоблачно+32°C39 %764 мм1.2 м/с5 %
    18:00Ясно и безоблачно+25°C62 %764 мм1.4 м/с5 %
    21:00Ясно и безоблачно+22°C70 %765 мм0.5 м/с5 %
Мы используем cookies
Соглашаюсь